Powered by GoogleTranslate

Occupational Safety and Health Administration OSHA

Alert: Due to routine maintenance on the OSHA website, some pages may be temporarily unavailable.
To report an emergency, file a complaint with OSHA or ask a safety and health question, call 1-800-321-6742 (OSHA).

Accident Search Results

Description, Abstract, KeywordSICNAICSDate RangeOfficeInsp Nr
Keyword: "Clothing"AllAllAllAllAll

By Date

Results 181 - 200 of 1519
Result Page: ... 5 6 7 8 9 10 11 12 13 14 ...
  # Summary Nr Event Date Report ID Fat SIC Event Description
181 200534188 04/14/2011 0751910   5999 Employee'S Finger Is Amputated By Sleeve Entangled In Router
182 201703154 04/04/2011 1054115   2431 Employee Injures Hand When Caught By Saw Blade
183 200651842 03/31/2011 0521100   1731 Burn - Electrical Fault In Electrical Box
184 200375509 03/18/2011 0454510   2821 Employee'S Arm Is Amputated When Caught In Rotating Shaft
185 202613576 03/15/2011 1054111   3471 Employee Splashes Chemicals; Suffers Skin Burn And Infection
186 201639937 02/23/2011 1054111   2621 Employee Injures Arm When Entangled In Rewinding Machine
187 200831584 02/16/2011 0215600 X 7219 Employee Is Killed When Scarf Becomes Caught In Rollers
188 200123222 02/08/2011 0523400 X 5093 Employee Is Killed When Clothes Are Caught In Conveyor
189 201752045 02/07/2011 0830600 X 7699 Mechanic Is Killed When Clothing Is Caught In Machinery
190 200083889 02/04/2011 0112000   2657 Employee'S Leg Is Lacerated By Unguarded Gear
191 202553178 02/03/2011 0950631   5083 Employee'S Legs Are Burned When Sparks Ingnite Gasoline
192 200359297 02/03/2011 0453710   3699 Worker Cutting Metal Is Burned When Clothing Catches On Fire
193 201623105 01/27/2011 1054116   191 Worker'S Arm Is Caught In Drive Shaft
194 200053833 01/12/2011 0728900   3523 Employee Amputates Finger While Hoisting Metal Cylinder
195 202469763 12/21/2010 0950643   1761 Employee Is Injured Falling From Ladder
196 202627923 12/21/2010 0950633   2673 Employee Injures Arm In Printing Press
197 201562584 12/18/2010 0854910 X 4789 Employee Is Killed When Caught By Rotating Truck Parts
198 201495058 12/11/2010 0950625   1781 Employee Is Injured By Drilling Rig Rotating Drive Shaft
199 201495124 12/08/2010 0950625   251 Employee Is Burned In Explosion
200 202469854 11/30/2010 0950643   7692 Employee Receives Burns When Shirt Catches On Fire

Thank You for Visiting Our Website

You are exiting the Department of Labor's Web server.

The Department of Labor does not endorse, takes no responsibility for, and exercises no control over the linked organization or its views, or contents, nor does it vouch for the accuracy or accessibility of the information contained on the destination server. The Department of Labor also cannot authorize the use of copyrighted materials contained in linked Web sites. Users must request such authorization from the sponsor of the linked Web site. Thank you for visiting our site. Please click the button below to continue.

Close